createdAt,value
2023-05-30T00:01:29.316Z,102144.31
2023-05-30T00:03:57.269Z,102145.41
2023-05-30T00:06:25.076Z,102130.81
2023-05-30T00:08:54.438Z,102127.34
2023-05-30T00:11:24.709Z,102103.38
2023-05-30T00:13:53.203Z,102108.88
2023-05-30T00:16:21.375Z,102108.47
2023-05-30T00:18:49.133Z,102091.19
2023-05-30T00:21:18.974Z,102078.28
2023-05-30T00:23:47.572Z,102077.69
2023-05-30T00:26:16.931Z,102077.06
2023-05-30T00:28:44.794Z,102052.50
2023-05-30T00:31:12.605Z,102060.47
2023-05-30T00:33:40.821Z,102041.50
2023-05-30T00:36:08.932Z,102015.69
2023-05-30T00:38:36.709Z,102024.47
2023-05-30T00:41:04.600Z,102016.16
2023-05-30T00:43:33.731Z,102024.13
2023-05-30T00:46:01.723Z,102031.63
2023-05-30T00:48:29.568Z,102030.03
2023-05-30T00:50:58.107Z,102018.44
2023-05-30T00:53:26.161Z,102001.41
2023-05-30T00:55:54.552Z,101970.75
2023-05-30T00:58:23.215Z,101967.06
2023-05-30T01:00:52.452Z,101978.84
2023-05-30T01:03:23.606Z,101958.38
2023-05-30T01:05:51.846Z,101960.47
2023-05-30T01:08:19.599Z,101949.94
2023-05-30T01:10:49.268Z,101958.97
2023-05-30T01:13:23.300Z,101968.47
2023-05-30T01:15:56.029Z,101970.31
2023-05-30T01:18:47.402Z,101972.84
2023-05-30T01:21:19.167Z,101969.88
2023-05-30T01:24:08.574Z,101990.84
2023-05-30T01:26:50.246Z,101994.56
2023-05-30T01:29:22.733Z,101979.59
2023-05-30T01:31:51.371Z,101988.16
2023-05-30T01:34:19.381Z,101994.47
2023-05-30T01:36:47.141Z,101997.44
2023-05-30T01:39:15.141Z,101992.94
2023-05-30T01:41:54.589Z,101997.09
2023-05-30T01:44:30.686Z,101993.25
2023-05-30T01:47:03.824Z,102021.22
2023-05-30T01:49:37.131Z,102075.03
2023-05-30T01:52:09.821Z,102078.97
2023-05-30T01:54:39.053Z,102103.13
2023-05-30T01:57:11.232Z,102111.69
2023-05-30T01:59:41.173Z,102083.38
2023-05-30T02:02:09.360Z,102075.25
2023-05-30T02:04:37.375Z,102079.03
2023-05-30T02:07:05.518Z,102077.19
2023-05-30T02:09:33.275Z,102095.78
2023-05-30T02:12:02.738Z,102079.97
2023-05-30T02:14:31.937Z,102067.25
2023-05-30T02:17:01.473Z,102067.16
2023-05-30T02:19:29.276Z,102071.47
2023-05-30T02:21:57.134Z,102096.16
2023-05-30T02:24:25.930Z,102108.63
2023-05-30T02:26:54.057Z,102107.34
2023-05-30T02:29:21.886Z,102109.16
2023-05-30T02:31:49.684Z,102107.16
2023-05-30T02:34:18.815Z,102077.28
2023-05-30T02:36:46.593Z,102090.94
2023-05-30T02:39:14.356Z,102082.00
2023-05-30T02:41:42.254Z,102050.06
2023-05-30T02:44:10.249Z,102051.00
2023-05-30T02:46:38.049Z,102047.53
2023-05-30T02:49:06.538Z,102057.75
2023-05-30T02:51:36.353Z,102051.81
2023-05-30T02:54:04.240Z,102059.13
2023-05-30T02:56:31.997Z,102048.84
2023-05-30T02:59:00.425Z,102052.34
2023-05-30T03:01:28.312Z,102058.16
2023-05-30T03:03:56.288Z,102052.66
2023-05-30T03:06:25.525Z,102062.53
2023-05-30T03:08:59.246Z,102058.78
2023-05-30T03:11:27.237Z,102043.28
2023-05-30T03:13:54.975Z,102017.22
2023-05-30T03:16:22.969Z,102019.69
2023-05-30T03:18:51.092Z,102012.28
2023-05-30T03:21:18.898Z,102001.97
2023-05-30T03:23:46.647Z,101993.88
2023-05-30T03:26:15.906Z,101988.66
2023-05-30T03:28:43.665Z,101967.81
2023-05-30T03:31:11.989Z,101939.31
2023-05-30T03:33:39.746Z,101951.78
2023-05-30T03:36:09.201Z,101926.00
2023-05-30T03:38:38.110Z,101939.53
2023-05-30T03:41:06.156Z,101960.47
2023-05-30T03:43:35.309Z,101986.97
2023-05-30T03:46:03.101Z,101978.69
2023-05-30T03:48:30.842Z,101987.16
2023-05-30T03:50:58.862Z,101977.09
2023-05-30T03:53:26.811Z,101955.09
2023-05-30T03:55:54.670Z,101976.03
2023-05-30T03:58:22.408Z,101980.53
2023-05-30T04:00:51.527Z,101984.94
2023-05-30T04:03:20.834Z,102018.75
2023-05-30T04:05:50.038Z,102031.25
2023-05-30T04:08:18.222Z,102024.78
2023-05-30T04:10:45.998Z,102041.91
2023-05-30T04:13:13.743Z,102051.59
2023-05-30T04:15:41.710Z,102043.75
2023-05-30T04:18:11.333Z,102045.00
2023-05-30T04:20:39.243Z,102043.59
2023-05-30T04:23:07.969Z,102058.63
2023-05-30T04:25:36.541Z,102092.19
2023-05-30T04:28:06.254Z,102071.41
2023-05-30T04:30:34.552Z,102083.34
2023-05-30T04:33:02.393Z,102059.28
2023-05-30T04:35:32.596Z,102082.16
2023-05-30T04:38:00.966Z,102084.19
2023-05-30T04:40:29.135Z,102096.25
2023-05-30T04:42:56.981Z,102081.75
2023-05-30T04:45:30.115Z,102086.28
2023-05-30T04:47:58.210Z,102078.81
2023-05-30T04:50:27.789Z,102079.28
2023-05-30T04:52:57.008Z,102097.78
2023-05-30T04:55:25.352Z,102125.47
2023-05-30T04:57:53.113Z,102083.63
2023-05-30T05:00:22.757Z,102076.28
2023-05-30T05:02:51.627Z,102129.94
2023-05-30T05:05:19.463Z,102137.28
2023-05-30T05:07:47.339Z,102126.88
2023-05-30T05:10:16.477Z,102159.06
2023-05-30T05:12:44.262Z,102145.06
2023-05-30T05:15:13.240Z,102149.56
2023-05-30T05:17:41.120Z,102126.53
2023-05-30T05:20:12.432Z,102132.94
2023-05-30T05:22:40.851Z,102123.06
2023-05-30T05:25:09.598Z,102138.06
2023-05-30T05:27:41.864Z,102137.97
2023-05-30T05:30:11.653Z,102144.50
2023-05-30T05:32:40.049Z,102139.38
2023-05-30T05:35:09.737Z,102174.94
2023-05-30T05:37:37.824Z,102105.25
2023-05-30T05:40:07.013Z,102115.78
2023-05-30T05:42:34.950Z,102134.19
2023-05-30T05:45:04.331Z,102197.06
2023-05-30T05:47:32.096Z,102180.38
2023-05-30T05:50:00.037Z,102170.84
2023-05-30T05:52:28.340Z,102135.88
2023-05-30T05:54:56.137Z,102178.59
2023-05-30T05:57:24.838Z,102163.56
2023-05-30T05:59:52.567Z,102148.78
2023-05-30T06:02:21.896Z,102191.78
2023-05-30T06:04:50.725Z,102225.69
2023-05-30T06:07:18.646Z,102272.78
2023-05-30T06:09:46.393Z,102299.38
2023-05-30T06:12:14.169Z,102314.88
2023-05-30T06:14:41.915Z,102311.81
2023-05-30T06:17:10.102Z,102313.81
2023-05-30T06:19:39.229Z,102310.25
2023-05-30T06:22:08.882Z,102326.22
2023-05-30T06:24:36.734Z,102319.81
2023-05-30T06:27:04.752Z,102324.16
2023-05-30T06:29:33.014Z,102351.88
2023-05-30T06:32:14.347Z,102333.84
2023-05-30T06:34:45.738Z,102315.50
2023-05-30T06:37:13.777Z,102316.38
2023-05-30T06:39:41.996Z,102311.28
2023-05-30T06:42:11.356Z,102283.47
2023-05-30T06:44:39.225Z,102334.75
2023-05-30T06:47:07.750Z,102291.47
2023-05-30T06:49:35.492Z,102306.53
2023-05-30T06:52:04.876Z,102330.31
2023-05-30T06:54:32.810Z,102358.97
2023-05-30T06:57:04.083Z,102332.69
2023-05-30T06:59:33.133Z,102347.13
2023-05-30T07:02:00.943Z,102321.56
2023-05-30T07:04:28.921Z,102304.41
2023-05-30T07:06:57.147Z,102337.63
2023-05-30T07:09:27.258Z,102328.03
2023-05-30T07:11:55.144Z,102324.66
2023-05-30T07:14:22.890Z,102335.50
2023-05-30T07:16:50.684Z,102351.59
2023-05-30T07:19:18.443Z,102390.16
2023-05-30T07:21:46.220Z,102389.28
2023-05-30T07:24:13.969Z,102358.56
2023-05-30T07:26:43.267Z,102392.56
2023-05-30T07:29:11.047Z,102392.84
2023-05-30T07:31:49.315Z,102398.94
2023-05-30T07:34:17.168Z,102397.81
2023-05-30T07:36:44.950Z,102397.53
2023-05-30T07:39:12.709Z,102402.97
2023-05-30T07:41:40.528Z,102407.53
2023-05-30T07:44:08.290Z,102411.47
2023-05-30T07:46:36.208Z,102424.69
2023-05-30T07:49:05.407Z,102419.63
2023-05-30T07:51:33.540Z,102402.91
2023-05-30T07:54:01.299Z,102423.16
2023-05-30T07:56:29.059Z,102375.97
2023-05-30T07:58:56.789Z,102426.78
2023-05-30T08:01:24.546Z,102429.44
2023-05-30T08:03:52.507Z,102422.59
2023-05-30T08:06:21.789Z,102423.00
2023-05-30T08:08:49.540Z,102406.66
2023-05-30T08:11:17.304Z,102422.16
2023-05-30T08:13:45.372Z,102383.03
2023-05-30T08:16:13.810Z,102410.16
2023-05-30T08:18:42.646Z,102431.72
2023-05-30T08:21:10.961Z,102428.81
2023-05-30T08:23:40.681Z,102454.28
2023-05-30T08:26:10.074Z,102465.84
2023-05-30T08:28:37.926Z,102475.16
2023-05-30T08:31:07.043Z,102483.47
2023-05-30T08:33:35.876Z,102480.34
2023-05-30T08:36:03.711Z,102485.06
2023-05-30T08:38:32.367Z,102485.50
2023-05-30T08:41:01.537Z,102489.56
2023-05-30T08:43:29.390Z,102489.88
2023-05-30T08:45:58.148Z,102508.28
2023-05-30T08:48:27.000Z,102495.59
2023-05-30T08:50:55.343Z,102500.88
2023-05-30T08:53:28.277Z,102510.00
2023-05-30T08:56:04.161Z,102504.41
2023-05-30T08:58:36.325Z,102494.75
2023-05-30T09:01:05.211Z,102512.53
2023-05-30T09:03:36.373Z,102511.63
2023-05-30T09:06:04.869Z,102509.47
2023-05-30T09:08:33.149Z,102517.78
2023-05-30T09:11:04.101Z,102512.03
2023-05-30T09:13:31.871Z,102512.38
2023-05-30T09:15:59.607Z,102516.78
2023-05-30T09:21:00.553Z,102523.91
2023-05-30T09:23:30.260Z,102530.47
2023-05-30T09:26:00.964Z,102530.19
2023-05-30T09:28:30.526Z,102530.38
2023-05-30T09:31:01.829Z,102534.28
2023-05-30T09:33:44.512Z,102532.31
2023-05-30T09:36:17.184Z,102526.91
2023-05-30T09:38:54.886Z,102531.44
2023-05-30T09:41:22.732Z,102536.50
2023-05-30T09:43:55.171Z,102521.34
2023-05-30T09:46:23.827Z,102538.63
2023-05-30T09:48:52.174Z,102530.81
2023-05-30T09:51:23.276Z,102529.66
2023-05-30T09:54:01.431Z,102523.44
2023-05-30T09:56:34.890Z,102521.63
2023-05-30T09:59:08.086Z,102533.03
2023-05-30T10:01:41.283Z,102522.69
2023-05-30T10:04:13.516Z,102532.59
2023-05-30T10:06:43.550Z,102540.72
2023-05-30T10:09:12.496Z,102555.38
2023-05-30T10:11:41.927Z,102558.66
2023-05-30T10:14:12.658Z,102554.91
2023-05-30T10:16:49.247Z,102557.69
2023-05-30T10:19:20.009Z,102536.63
2023-05-30T10:21:48.097Z,102546.28
2023-05-30T10:24:17.896Z,102548.19
2023-05-30T10:26:51.207Z,102550.34
2023-05-30T10:29:23.620Z,102545.97
2023-05-30T10:31:55.325Z,102546.78
2023-05-30T10:34:36.529Z,102540.88
2023-05-30T10:37:04.760Z,102540.91
2023-05-30T10:39:38.637Z,102551.84
2023-05-30T10:42:13.182Z,102545.34
2023-05-30T10:44:55.777Z,102552.19
2023-05-30T10:47:39.209Z,102555.72
2023-05-30T10:50:12.507Z,102559.88
2023-05-30T10:52:40.259Z,102565.22
2023-05-30T10:55:11.700Z,102566.19
2023-05-30T10:57:39.526Z,102572.06
2023-05-30T11:00:22.981Z,102548.94
2023-05-30T11:02:52.842Z,102555.53
2023-05-30T11:05:23.994Z,102563.19
2023-05-30T11:07:52.056Z,102561.72
2023-05-30T11:10:27.838Z,102558.91
2023-05-30T11:13:08.880Z,102553.50
2023-05-30T11:15:44.041Z,102554.88
2023-05-30T11:18:19.062Z,102545.00
2023-05-30T11:20:52.703Z,102551.50
2023-05-30T11:23:23.043Z,102546.97
2023-05-30T11:25:53.859Z,102562.25
2023-05-30T11:28:36.151Z,102562.81
2023-05-30T11:31:20.870Z,102551.81
2023-05-30T11:33:49.941Z,102551.09
2023-05-30T11:36:18.017Z,102559.50
2023-05-30T11:38:48.062Z,102555.03
2023-05-30T11:41:16.409Z,102559.75
2023-05-30T11:43:44.877Z,102549.59
2023-05-30T11:46:12.796Z,102558.91
2023-05-30T11:48:42.530Z,102564.50
2023-05-30T11:51:10.646Z,102566.44
2023-05-30T11:53:38.406Z,102559.34
2023-05-30T11:56:06.576Z,102554.88
2023-05-30T11:58:34.422Z,102558.97
2023-05-30T12:01:02.619Z,102557.19
2023-05-30T12:03:32.666Z,102549.78
2023-05-30T12:06:12.439Z,102536.88
2023-05-30T12:08:41.818Z,102543.84
2023-05-30T12:11:12.157Z,102544.84
2023-05-30T12:13:39.989Z,102535.84
2023-05-30T12:16:08.573Z,102545.16
2023-05-30T12:18:36.827Z,102537.38
2023-05-30T12:21:06.354Z,102548.16
2023-05-30T12:23:34.200Z,102532.66
2023-05-30T12:26:01.993Z,102542.59
2023-05-30T12:28:29.852Z,102539.53
2023-05-30T12:30:58.581Z,102534.19
2023-05-30T12:33:28.569Z,102543.50
2023-05-30T12:35:58.215Z,102543.81
2023-05-30T12:38:27.348Z,102540.31
2023-05-30T12:40:55.122Z,102545.19
2023-05-30T12:43:27.987Z,102528.97
2023-05-30T12:46:00.796Z,102540.06
2023-05-30T12:48:28.613Z,102537.19
2023-05-30T12:50:56.550Z,102529.84
2023-05-30T12:53:24.334Z,102539.91
2023-05-30T12:55:53.523Z,102526.81
2023-05-30T12:58:21.776Z,102531.44
2023-05-30T13:00:49.558Z,102542.09
2023-05-30T13:03:18.749Z,102538.47
2023-05-30T13:05:48.884Z,102540.25
2023-05-30T13:08:16.976Z,102539.69
2023-05-30T13:10:45.016Z,102539.09
2023-05-30T13:13:14.213Z,102544.59
2023-05-30T13:15:42.383Z,102549.47
2023-05-30T13:18:10.259Z,102547.56
2023-05-30T13:20:38.106Z,102548.31
2023-05-30T13:23:06.149Z,102551.63
2023-05-30T13:25:33.975Z,102554.06
2023-05-30T13:28:01.706Z,102553.09
2023-05-30T13:30:30.843Z,102553.06
2023-05-30T13:32:58.620Z,102559.31
2023-05-30T13:35:26.419Z,102557.66
2023-05-30T13:37:54.787Z,102566.84
2023-05-30T13:40:22.598Z,102566.66
2023-05-30T13:42:50.651Z,102564.44
2023-05-30T13:45:19.819Z,102554.84
2023-05-30T13:47:49.051Z,102555.41
2023-05-30T13:50:18.712Z,102555.38
2023-05-30T13:52:48.232Z,102555.34
2023-05-30T13:55:15.984Z,102548.97
2023-05-30T13:57:43.720Z,102544.38
2023-05-30T14:00:12.770Z,102549.13
2023-05-30T14:02:40.719Z,102541.66
2023-05-30T14:05:12.734Z,102539.78
2023-05-30T14:07:41.748Z,102548.94
2023-05-30T14:10:10.154Z,102541.22
2023-05-30T14:12:37.990Z,102544.28
2023-05-30T14:15:06.995Z,102533.94
2023-05-30T14:17:35.109Z,102543.47
2023-05-30T14:20:02.924Z,102553.22
2023-05-30T14:22:32.131Z,102549.75
2023-05-30T14:24:59.869Z,102549.81
2023-05-30T14:27:27.640Z,102546.34
2023-05-30T14:29:55.486Z,102547.09
2023-05-30T14:32:23.288Z,102551.84
2023-05-30T14:34:51.318Z,102550.44
2023-05-30T14:37:19.090Z,102557.53
2023-05-30T14:39:49.129Z,102561.00
2023-05-30T14:42:16.920Z,102562.44
2023-05-30T14:44:44.648Z,102554.84
2023-05-30T14:47:12.417Z,102553.66
2023-05-30T14:49:40.184Z,102566.13
2023-05-30T14:52:08.134Z,102579.59
2023-05-30T14:54:35.856Z,102570.53
2023-05-30T14:57:05.720Z,102579.06
2023-05-30T14:59:33.707Z,102572.19
2023-05-30T15:02:02.323Z,102566.75
2023-05-30T15:04:30.379Z,102573.06
2023-05-30T15:06:58.226Z,102572.34
2023-05-30T15:09:26.733Z,102568.31
2023-05-30T15:11:54.513Z,102564.03
2023-05-30T15:14:23.684Z,102563.50
2023-05-30T15:16:51.492Z,102562.84
2023-05-30T15:19:19.521Z,102563.75
2023-05-30T15:21:47.289Z,102564.97
2023-05-30T15:24:15.060Z,102562.50
2023-05-30T15:26:42.903Z,102568.81
2023-05-30T15:29:10.636Z,102561.56
2023-05-30T15:31:39.888Z,102558.84
2023-05-30T15:34:07.910Z,102553.53
2023-05-30T15:36:35.674Z,102559.34
2023-05-30T15:39:03.515Z,102564.75
2023-05-30T15:41:31.261Z,102562.47
2023-05-30T15:44:02.771Z,102564.22
2023-05-30T15:46:30.957Z,102558.88
2023-05-30T15:49:00.230Z,102559.50
2023-05-30T15:51:29.243Z,102562.34
2023-05-30T15:53:57.012Z,102558.09
2023-05-30T15:56:24.951Z,102567.50
2023-05-30T15:58:52.696Z,102564.41
2023-05-30T16:01:20.640Z,102566.22
2023-05-30T16:03:48.986Z,102570.88
2023-05-30T16:06:20.419Z,102564.31
2023-05-30T16:08:48.228Z,102559.13
2023-05-30T16:11:16.035Z,102563.94
2023-05-30T16:13:43.789Z,102568.34
2023-05-30T16:16:11.577Z,102563.13
2023-05-30T16:18:39.332Z,102551.72
2023-05-30T16:21:07.324Z,102553.53
2023-05-30T16:23:36.410Z,102551.00
2023-05-30T16:26:04.148Z,102540.47
2023-05-30T16:28:31.874Z,102539.19
2023-05-30T16:30:59.757Z,102543.88
2023-05-30T16:33:28.323Z,102547.06
2023-05-30T16:36:08.039Z,102545.50
2023-05-30T16:38:39.388Z,102546.53
2023-05-30T16:41:13.479Z,102551.63
2023-05-30T16:43:43.195Z,102544.94
2023-05-30T16:46:11.648Z,102541.03
2023-05-30T16:48:39.516Z,102542.13
2023-05-30T16:51:07.507Z,102537.94
2023-05-30T16:53:35.947Z,102537.81
2023-05-30T16:56:16.340Z,102543.88
2023-05-30T16:58:46.020Z,102553.28
2023-05-30T17:01:14.135Z,102550.66
2023-05-30T17:03:42.377Z,102552.72
2023-05-30T17:06:10.982Z,102540.94
2023-05-30T17:08:39.144Z,102544.22
2023-05-30T17:11:08.316Z,102548.53
2023-05-30T17:13:36.126Z,102546.38
2023-05-30T17:16:05.566Z,102540.09
2023-05-30T17:18:33.430Z,102549.34
2023-05-30T17:21:02.618Z,102544.59
2023-05-30T17:23:30.701Z,102546.50
2023-05-30T17:26:02.588Z,102556.06
2023-05-30T17:28:33.081Z,102551.44
2023-05-30T17:31:01.345Z,102547.81
2023-05-30T17:33:29.529Z,102545.53
2023-05-30T17:35:57.323Z,102543.66
2023-05-30T17:38:25.366Z,102548.63
2023-05-30T17:40:53.215Z,102549.63
2023-05-30T17:43:21.930Z,102544.50
2023-05-30T17:45:51.272Z,102554.41
2023-05-30T17:48:19.034Z,102546.78
2023-05-30T17:50:46.795Z,102552.19
2023-05-30T17:53:14.810Z,102549.16
2023-05-30T17:55:42.544Z,102555.03
2023-05-30T17:58:10.291Z,102555.88
2023-05-30T18:00:40.204Z,102559.06
2023-05-30T18:03:09.322Z,102544.66
2023-05-30T18:05:38.340Z,102553.53
2023-05-30T18:08:06.156Z,102556.19
2023-05-30T18:10:33.916Z,102555.91
2023-05-30T18:13:01.695Z,102554.44
2023-05-30T18:15:29.566Z,102558.19
2023-05-30T18:17:57.379Z,102559.06
2023-05-30T18:20:26.732Z,102554.13
2023-05-30T18:22:54.493Z,102560.72
2023-05-30T18:25:22.368Z,102567.00
2023-05-30T18:27:50.115Z,102561.63
2023-05-30T18:30:18.342Z,102565.22
2023-05-30T18:32:46.278Z,102566.00
2023-05-30T18:35:14.098Z,102578.09
2023-05-30T18:37:43.313Z,102569.69
2023-05-30T18:40:13.169Z,102577.72
2023-05-30T18:42:42.984Z,102571.19
2023-05-30T18:45:11.607Z,102584.06
2023-05-30T18:47:39.465Z,102582.75
2023-05-30T18:50:08.134Z,102587.44
2023-05-30T18:52:35.977Z,102580.31
2023-05-30T18:55:05.506Z,102574.13
2023-05-30T18:57:33.241Z,102577.09
2023-05-30T19:00:01.239Z,102578.78
2023-05-30T19:02:29.753Z,102584.75
2023-05-30T19:04:57.653Z,102575.50
2023-05-30T19:07:25.914Z,102573.41
2023-05-30T19:09:59.390Z,102567.88
2023-05-30T19:12:51.122Z,102574.53
2023-05-30T19:15:19.284Z,102570.22
2023-05-30T19:17:47.070Z,102566.13
2023-05-30T19:20:14.963Z,102565.75
2023-05-30T19:22:42.766Z,102556.13
2023-05-30T19:25:10.776Z,102560.88
2023-05-30T19:27:39.982Z,102553.50
2023-05-30T19:30:08.898Z,102561.31
2023-05-30T19:32:36.868Z,102557.56
2023-05-30T19:35:05.127Z,102554.53
2023-05-30T19:37:32.898Z,102554.06
2023-05-30T19:40:00.765Z,102548.22
2023-05-30T19:42:28.591Z,102553.91
2023-05-30T19:44:57.737Z,102565.69
2023-05-30T19:47:25.736Z,102548.03
2023-05-30T19:49:53.503Z,102536.09
2023-05-30T19:52:21.280Z,102533.06
2023-05-30T19:54:49.043Z,102552.41
2023-05-30T19:57:17.705Z,102544.34
2023-05-30T19:59:45.537Z,102559.13
2023-05-30T20:02:14.942Z,102551.06
2023-05-30T20:04:42.707Z,102556.44
2023-05-30T20:07:10.497Z,102547.81
2023-05-30T20:09:38.398Z,102564.41
2023-05-30T20:12:06.943Z,102559.34
2023-05-30T20:14:36.169Z,102557.78
2023-05-30T20:17:03.967Z,102563.50
2023-05-30T20:19:33.094Z,102565.50
2023-05-30T20:22:00.938Z,102555.91
2023-05-30T20:24:28.826Z,102564.88
2023-05-30T20:26:56.630Z,102537.50
2023-05-30T20:29:25.162Z,102537.66
2023-05-30T20:31:53.135Z,102533.41
2023-05-30T20:34:21.020Z,102529.22
2023-05-30T20:36:50.191Z,102530.31
2023-05-30T20:39:18.025Z,102548.72
2023-05-30T20:41:47.004Z,102550.69
2023-05-30T20:44:15.942Z,102554.66
2023-05-30T20:46:43.774Z,102533.53
2023-05-30T20:49:11.577Z,102536.50
2023-05-30T20:51:40.027Z,102544.69
2023-05-30T20:54:09.271Z,102518.31
2023-05-30T20:56:37.016Z,102507.84
2023-05-30T20:59:04.852Z,102491.53
2023-05-30T21:01:32.672Z,102492.25
2023-05-30T21:04:00.545Z,102481.78
2023-05-30T21:06:28.402Z,102468.84
2023-05-30T21:08:56.172Z,102467.56
2023-05-30T21:11:25.399Z,102459.44
2023-05-30T21:13:53.152Z,102481.69
2023-05-30T21:16:22.826Z,102482.00
2023-05-30T21:18:50.686Z,102447.16
2023-05-30T21:21:18.478Z,102467.88
2023-05-30T21:23:46.213Z,102499.44
2023-05-30T21:26:14.049Z,102473.66
2023-05-30T21:28:43.152Z,102460.19
2023-05-30T21:31:10.945Z,102474.50
2023-05-30T21:33:38.680Z,102487.41
2023-05-30T21:36:07.124Z,102479.06
2023-05-30T21:38:34.904Z,102486.69
2023-05-30T21:41:02.720Z,102476.53
2023-05-30T21:43:30.623Z,102483.97
2023-05-30T21:45:59.781Z,102469.56
2023-05-30T21:48:27.588Z,102469.38
2023-05-30T21:50:55.420Z,102459.75
2023-05-30T21:53:23.179Z,102486.78
2023-05-30T21:55:50.961Z,102457.72
2023-05-30T21:58:18.721Z,102465.28
2023-05-30T22:00:47.878Z,102441.69
2023-05-30T22:03:18.522Z,102389.97
2023-05-30T22:05:46.502Z,102387.28
2023-05-30T22:08:14.491Z,102342.59
2023-05-30T22:10:42.679Z,102341.28
2023-05-30T22:13:11.412Z,102351.31
2023-05-30T22:15:39.203Z,102371.59
2023-05-30T22:18:07.153Z,102378.00
2023-05-30T22:20:36.368Z,102400.06
2023-05-30T22:23:04.164Z,102392.28
2023-05-30T22:25:31.915Z,102384.28
2023-05-30T22:27:59.768Z,102370.59
2023-05-30T22:30:27.583Z,102367.22
2023-05-30T22:32:56.005Z,102360.03
2023-05-30T22:35:24.221Z,102371.09
2023-05-30T22:37:53.332Z,102349.53
2023-05-30T22:40:21.529Z,102336.94
2023-05-30T22:42:49.282Z,102331.44
2023-05-30T22:45:17.064Z,102285.34
2023-05-30T22:47:44.833Z,102273.97
2023-05-30T22:50:12.659Z,102296.84
2023-05-30T22:52:40.497Z,102268.84
2023-05-30T22:55:09.894Z,102238.13
2023-05-30T22:57:37.632Z,102198.22
2023-05-30T23:00:06.993Z,102209.00
2023-05-30T23:02:34.938Z,102209.78
2023-05-30T23:05:03.002Z,102225.88
2023-05-30T23:07:30.724Z,102216.97
2023-05-30T23:09:58.464Z,102222.97
2023-05-30T23:12:27.621Z,102211.53
2023-05-30T23:14:55.352Z,102230.88
2023-05-30T23:17:23.102Z,102219.75
2023-05-30T23:19:50.934Z,102241.19
2023-05-30T23:22:19.064Z,102257.41
2023-05-30T23:24:46.824Z,102280.03
2023-05-30T23:27:14.656Z,102277.03
2023-05-30T23:29:43.827Z,102315.13
2023-05-30T23:32:11.591Z,102308.72
2023-05-30T23:34:39.319Z,102355.41
2023-05-30T23:37:07.388Z,102345.03
2023-05-30T23:39:35.441Z,102358.69
2023-05-30T23:42:03.223Z,102368.03
2023-05-30T23:44:31.021Z,102361.59
2023-05-30T23:47:00.222Z,102386.16
2023-05-30T23:49:27.988Z,102357.84
2023-05-30T23:51:55.753Z,102376.78
2023-05-30T23:54:23.643Z,102388.75
2023-05-30T23:56:51.391Z,102399.13
2023-05-30T23:59:19.136Z,102387.03
